Time;durP1;ratioP1;P1;durP2;ratioP2;P2;SDS_P1;SDS_P2;PMS_P1;PMS_P2;Temp;Humidity;BMP_temperature;BMP_pressure;BME280_temperature;BME280_humidity;BME280_pressure;Samples;Min_cycle;Max_cycle;Signal;HPM_P1;HPM_P2
2022/12/21 00:01:40;;;;;;;;;;;0.40;99.90;;;;;;5031907;28;20120;-76
2022/12/21 00:04:08;;;;;;;33.85;16.33;;;0.40;99.90;;;;;;5031153;28;19916;-75
2022/12/21 00:06:37;;;;;;;42.20;18.65;;;0.40;99.90;;;;;;5031058;28;20021;-76
2022/12/21 00:09:05;;;;;;;42.00;18.83;;;0.50;99.90;;;;;;5031288;28;20340;-77
2022/12/21 00:11:32;;;;;;;38.63;19.05;;;0.50;99.90;;;;;;5032669;28;20111;-76
2022/12/21 00:14:00;;;;;;;35.75;16.63;;;0.60;99.90;;;;;;5047716;28;20172;-76
2022/12/21 00:16:29;;;;;;;41.90;18.88;;;0.70;99.90;;;;;;5032479;28;20506;-75
2022/12/21 00:18:56;;;;;;;34.67;18.67;;;0.70;99.90;;;;;;5032543;28;20036;-76
2022/12/21 00:21:25;;;;;;;44.63;18.83;;;0.70;99.90;;;;;;5047902;28;20422;-76
2022/12/21 00:23:53;;;;;;;40.83;18.13;;;0.70;99.90;;;;;;5031453;28;20509;-76
2022/12/21 00:26:21;;;;;;;37.67;18.85;;;0.80;99.90;;;;;;5031317;28;20029;-76
2022/12/21 00:28:49;;;;;;;39.20;18.73;;;0.80;99.90;;;;;;5031294;28;20033;-76
2022/12/21 00:31:20;;;;;;;41.05;19.42;;;0.80;99.90;;;;;;5030898;28;20025;-76
2022/12/21 00:33:47;;;;;;;36.63;18.77;;;0.90;99.90;;;;;;5031078;28;20044;-76
2022/12/21 00:36:14;;;;;;;38.67;18.75;;;0.90;99.90;;;;;;5047763;28;20111;-76
2022/12/21 00:38:41;;;;;;;39.83;18.42;;;0.90;99.90;;;;;;5032519;28;20032;-76
2022/12/21 00:41:12;;;;;;;44.50;20.00;;;0.90;99.90;;;;;;5031459;28;20409;-75
2022/12/21 00:43:39;;;;;;;64.70;31.23;;;0.90;99.90;;;;;;5030936;28;20033;-75
2022/12/21 00:46:05;;;;;;;60.63;29.40;;;0.90;99.90;;;;;;5031162;28;20033;-76
2022/12/21 00:48:32;;;;;;;;;;;0.90;99.90;;;;;;5031546;28;20095;-76
2022/12/21 00:51:12;;;;;;;58.50;27.60;;;1.00;99.90;;;;;;5031226;28;19995;-76
2022/12/21 00:53:38;;;;;;;49.83;23.80;;;1.00;99.90;;;;;;5030758;28;20040;-76
2022/12/21 00:56:06;;;;;;;48.88;23.77;;;1.00;99.90;;;;;;5029485;28;20029;-76
2022/12/21 00:58:33;;;;;;;46.78;23.55;;;1.10;99.90;;;;;;5046344;28;20042;-76
2022/12/21 01:01:04;;;;;;;57.33;27.05;;;1.10;99.90;;;;;;5030837;28;20026;-76
2022/12/21 01:03:31;;;;;;;54.40;27.17;;;1.10;99.90;;;;;;5029148;28;20033;-76
2022/12/21 01:05:57;;;;;;;45.67;22.73;;;1.10;99.90;;;;;;5029863;28;20029;-76
2022/12/21 01:08:23;;;;;;;;;;;1.10;99.90;;;;;;5029883;28;20044;-76
2022/12/21 01:10:49;;;;;;;44.70;22.33;;;1.10;99.90;;;;;;5031444;28;19905;-76
2022/12/21 01:13:16;;;;;;;44.80;23.00;;;1.10;99.90;;;;;;5030854;28;20470;-77
2022/12/21 01:15:43;;;;;;;39.20;20.63;;;1.10;99.90;;;;;;5029300;28;20034;-77
2022/12/21 01:18:10;;;;;;;44.00;21.63;;;1.10;99.90;;;;;;5029558;28;20040;-77
2022/12/21 01:20:45;;;;;;;43.22;21.92;;;1.20;99.90;;;;;;5029436;28;20040;-77
2022/12/21 01:23:11;;;;;;;41.83;22.08;;;1.20;99.90;;;;;;5030805;28;20483;-76
2022/12/21 01:25:37;;;;;;;;;;;1.30;99.90;;;;;;5029632;28;20036;-76
2022/12/21 01:28:03;;;;;;;43.58;20.05;;;1.30;99.90;;;;;;5030857;28;19909;-76
2022/12/21 01:30:28;;;;;;;;;;;1.40;99.90;;;;;;5031038;28;20029;-76
2022/12/21 01:32:54;;;;;;;40.85;19.10;;;1.40;99.90;;;;;;5029511;28;19956;-77
2022/12/21 01:35:20;;;;;;;;;;;1.40;99.90;;;;;;5046374;28;20029;-76
2022/12/21 01:37:46;;;;;;;51.45;26.27;;;1.30;99.90;;;;;;5029900;28;20331;-76
2022/12/21 01:40:12;;;;;;;;;;;1.30;99.90;;;;;;5029410;28;20467;-76
2022/12/21 01:42:38;;;;;;;39.67;17.63;;;1.30;99.90;;;;;;5030596;28;19909;-76
2022/12/21 01:45:05;;;;;;;;;;;1.30;99.90;;;;;;5029346;28;20021;-76
2022/12/21 01:47:47;;;;;;;42.28;19.85;;;1.30;99.90;;;;;;5028958;28;19959;-76
2022/12/21 01:50:18;;;;;;;37.95;18.98;;;1.20;99.90;;;;;;5028165;28;20540;-76
2022/12/21 01:52:44;;;;;;;38.00;18.73;;;1.30;99.90;;;;;;5030179;28;20476;-78
2022/12/21 01:55:10;;;;;;;40.28;18.95;;;1.30;99.90;;;;;;5028481;28;20083;-76
2022/12/21 01:57:36;;;;;;;;;;;1.30;99.90;;;;;;5028642;28;20064;-76
2022/12/21 02:00:04;;;;;;;36.60;16.30;;;1.40;99.90;;;;;;5028834;28;19913;-76
2022/12/21 02:02:44;;;;;;;34.85;15.88;;;1.40;99.90;;;;;;5028463;28;20049;-76
2022/12/21 02:05:41;;;;;;;37.83;16.13;;;1.40;99.90;;;;;;5045495;28;20033;-76
2022/12/21 02:08:07;;;;;;;39.83;17.50;;;1.40;99.90;;;;;;5045465;28;20028;-76
2022/12/21 02:10:33;;;;;;;;;;;1.40;99.90;;;;;;5045592;28;20034;-76
2022/12/21 02:13:05;;;;;;;31.38;15.98;;;1.40;99.90;;;;;;5044857;28;19970;-76
2022/12/21 02:15:56;;;;;;;34.42;15.15;;;1.40;99.90;;;;;;5028172;28;20036;-76
2022/12/21 02:18:40;;;;;;;30.52;15.43;;;1.40;99.90;;;;;;5020274;28;20041;-76
2022/12/21 02:21:28;;;;;;;32.25;16.00;;;1.30;99.90;;;;;;5028521;28;20025;-76
2022/12/21 02:24:12;;;;;;;30.92;15.68;;;1.40;99.90;;;;;;5028307;28;20117;-76
2022/12/21 02:27:03;;;;;;;30.40;14.70;;;1.40;99.90;;;;;;5029904;28;20026;-76
2022/12/21 02:29:28;;;;;;;27.60;14.20;;;1.40;99.90;;;;;;5027966;28;20025;-76
2022/12/21 02:31:54;;;;;;;;;;;1.40;99.90;;;;;;5028579;28;20044;-76
2022/12/21 02:34:29;;;;;;;31.42;14.65;;;1.40;99.90;;;;;;5029205;28;20286;-76
2022/12/21 02:37:12;;;;;;;32.00;14.02;;;1.40;99.90;;;;;;5028222;28;20099;-76
2022/12/21 02:39:53;;;;;;;28.38;13.30;;;1.40;99.90;;;;;;5029574;28;20091;-77
2022/12/21 02:45:26;;;;;;;28.10;14.27;;;1.50;99.90;;;;;;5029973;28;20868;-76
2022/12/21 02:48:04;;;;;;;26.48;13.30;;;1.50;99.90;;;;;;5027996;28;20069;-75
2022/12/21 02:50:38;;;;;;;30.30;13.77;;;1.50;99.90;;;;;;5028747;28;20025;-76
2022/12/21 02:53:10;;;;;;;28.48;13.73;;;1.60;99.90;;;;;;5027961;28;20073;-75
2022/12/21 02:55:36;;;;;;;26.20;13.38;;;1.60;99.90;;;;;;5029078;28;20175;-76
2022/12/21 02:58:11;;;;;;;;;;;1.60;99.90;;;;;;5028479;28;20051;-76
2022/12/21 03:00:49;;;;;;;26.67;12.20;;;1.60;99.90;;;;;;5027997;28;19920;-76
2022/12/21 03:03:49;;;;;;;23.27;12.48;;;1.60;99.90;;;;;;5029340;28;20037;-76
2022/12/21 03:06:27;;;;;;;29.05;12.95;;;1.50;99.90;;;;;;5029068;28;20096;-76
2022/12/21 03:09:11;;;;;;;24.42;12.48;;;1.60;99.90;;;;;;5027099;28;20131;-76
2022/12/21 03:12:03;;;;;;;25.48;12.10;;;1.60;99.90;;;;;;5026637;28;20434;-76
2022/12/21 03:14:51;;;;;;;22.73;10.40;;;1.60;99.90;;;;;;4999215;28;20173;-76
2022/12/21 03:17:19;;;;;;;25.50;10.77;;;1.60;99.90;;;;;;5027167;28;20037;-76
2022/12/21 03:19:48;;;;;;;26.20;12.43;;;1.60;99.90;;;;;;5027203;28;20027;-76
2022/12/21 03:22:28;;;;;;;23.70;11.85;;;1.60;99.90;;;;;;5028416;28;20033;-75
2022/12/21 03:25:19;;;;;;;21.83;11.88;;;1.60;99.90;;;;;;5026901;28;20462;-76
2022/12/21 03:27:50;;;;;;;23.67;10.43;;;1.60;99.90;;;;;;5027007;28;20463;-75
2022/12/21 03:30:19;;;;;;;25.15;11.30;;;1.70;99.90;;;;;;5027310;28;20044;-76
2022/12/21 03:32:58;;;;;;;22.60;10.90;;;1.70;99.90;;;;;;5028682;28;20037;-74
2022/12/21 03:35:33;;;;;;;23.92;10.85;;;1.70;99.90;;;;;;5027209;28;20076;-76
2022/12/21 03:38:03;;;;;;;22.17;9.98;;;1.70;99.90;;;;;;5028461;28;20021;-76
2022/12/21 03:40:33;;;;;;;24.17;11.75;;;1.70;99.90;;;;;;5027313;28;20033;-76
2022/12/21 03:43:34;;;;;;;29.23;13.02;;;1.80;99.90;;;;;;5028354;28;20037;-76
2022/12/21 03:46:07;;;;;;;26.17;12.75;;;1.80;99.90;;;;;;5019537;28;20037;-76
2022/12/21 03:48:46;;;;;;;23.05;11.68;;;1.80;99.90;;;;;;5026850;28;20042;-76
2022/12/21 03:51:46;;;;;;;22.88;11.23;;;1.80;99.90;;;;;;5043753;28;20018;-76
2022/12/21 03:54:30;;;;;;;21.70;11.50;;;1.80;99.90;;;;;;5026783;28;20625;-76
2022/12/21 03:56:57;;;;;;;21.67;11.57;;;1.80;99.90;;;;;;5028414;28;20060;-75
2022/12/21 03:59:24;;;;;;;22.42;10.30;;;1.80;99.90;;;;;;5043783;28;20072;-76
2022/12/21 04:02:06;;;;;;;21.70;10.57;;;1.80;99.90;;;;;;5026828;28;20034;-76
2022/12/21 04:04:59;;;;;;;22.88;11.18;;;1.80;99.90;;;;;;5027067;28;20192;-76
2022/12/21 04:07:27;;;;;;;24.20;10.35;;;1.90;99.90;;;;;;5043653;28;20048;-76
2022/12/21 04:10:16;;;;;;;20.75;10.60;;;1.90;99.90;;;;;;5026536;28;20683;-76
2022/12/21 04:12:42;;;;;;;24.33;11.20;;;1.90;99.90;;;;;;5028278;28;20108;-76
2022/12/21 04:15:21;;;;;;;;;;;1.90;99.90;;;;;;5028655;28;20502;-75
2022/12/21 04:17:49;;;;;;;23.38;11.20;;;1.90;99.90;;;;;;5026989;28;20300;-76
2022/12/21 04:20:17;;;;;;;22.73;11.95;;;2.00;99.90;;;;;;5029476;28;20030;-76
2022/12/21 04:28:24;;;;;;;26.67;11.70;;;2.10;99.90;;;;;;5032079;28;20036;-76
2022/12/21 04:30:50;;;;;;;23.50;11.43;;;2.10;99.90;;;;;;5030176;28;20565;-76
2022/12/21 04:33:17;;;;;;;;;;;2.20;99.90;;;;;;5047118;28;20557;-76
2022/12/21 04:38:30;;;;;;;22.25;11.38;;;2.10;99.90;;;;;;5031883;28;20288;-76
2022/12/21 04:40:57;;;;;;;25.77;12.20;;;2.10;99.90;;;;;;5046893;28;20018;-76
2022/12/21 04:43:24;;;;;;;26.88;12.35;;;2.10;99.90;;;;;;5046720;28;20029;-76
2022/12/21 04:45:58;;;;;;;27.05;11.77;;;2.00;99.90;;;;;;5031386;28;20029;-76
2022/12/21 04:48:23;;;;;;;37.20;13.73;;;2.10;99.90;;;;;;5030574;28;20041;-76
2022/12/21 04:50:49;;;;;;;;;;;2.10;99.90;;;;;;5047165;28;20456;-75
2022/12/21 04:53:15;;;;;;;26.17;12.70;;;2.00;99.90;;;;;;5029962;28;19970;-76
2022/12/21 04:55:43;;;;;;;;;;;2.10;99.90;;;;;;5030511;28;20040;-77
2022/12/21 04:58:08;;;;;;;27.02;12.23;;;2.10;99.90;;;;;;5030153;28;19916;-76
2022/12/21 05:00:34;;;;;;;;;;;2.00;99.90;;;;;;5030609;28;20033;-76
2022/12/21 05:03:00;;;;;;;31.83;12.63;;;2.00;99.90;;;;;;5029914;28;19916;-76
2022/12/21 05:05:26;;;;;;;;;;;2.00;99.90;;;;;;5031863;28;20164;-76
2022/12/21 05:07:52;;;;;;;26.83;14.18;;;2.10;99.90;;;;;;5029961;28;19905;-76
2022/12/21 05:10:18;;;;;;;33.45;16.42;;;2.00;99.90;;;;;;5030572;28;20119;-76
2022/12/21 05:12:43;;;;;;;;;;;2.00;99.90;;;;;;5030496;28;20108;-76
2022/12/21 05:15:09;;;;;;;19.25;10.20;;;2.10;99.90;;;;;;5029871;28;19909;-76
2022/12/21 05:17:35;;;;;;;;;;;2.10;99.90;;;;;;5030092;28;20025;-76
2022/12/21 05:20:00;;;;;;;26.20;11.18;;;2.20;99.90;;;;;;5031080;28;20262;-76
2022/12/21 05:22:26;;;;;;;;;;;2.20;99.90;;;;;;5046551;28;20398;-75
2022/12/21 05:24:52;;;;;;;22.05;10.23;;;2.30;99.90;;;;;;5029913;28;19953;-76
2022/12/21 05:27:17;;;;;;;;;;;2.30;99.90;;;;;;5030774;28;20116;-74
2022/12/21 05:29:43;;;;;;;25.08;11.82;;;2.30;99.90;;;;;;5029709;28;19909;-75
2022/12/21 05:32:08;;;;;;;;;;;2.30;99.90;;;;;;5030200;28;20048;-75
2022/12/21 05:34:34;;;;;;;26.10;11.95;;;2.30;99.90;;;;;;5029415;28;19909;-76
2022/12/21 05:37:00;;;;;;;;;;;2.20;99.90;;;;;;5029142;28;20086;-76
2022/12/21 05:39:25;;;;;;;23.65;10.73;;;2.30;99.90;;;;;;5030121;28;19948;-76
2022/12/21 05:41:51;;;;;;;;;;;2.30;99.90;;;;;;5030898;28;20404;-76
2022/12/21 05:44:16;;;;;;;21.58;9.93;;;2.20;99.90;;;;;;5029931;28;19913;-76
2022/12/21 05:46:42;;;;;;;;;;;2.30;99.90;;;;;;5030512;28;20029;-75
2022/12/21 05:49:08;;;;;;;22.38;10.57;;;2.30;99.90;;;;;;5028439;28;19924;-76
2022/12/21 05:51:33;;;;;;;;;;;2.20;99.90;;;;;;5030335;28;20411;-76
2022/12/21 05:53:59;;;;;;;21.33;10.45;;;2.30;99.90;;;;;;5030155;28;19916;-74
2022/12/21 05:56:25;;;;;;;29.83;12.35;;;2.30;99.90;;;;;;5045574;28;20571;-75
2022/12/21 05:58:50;;;;;;;;;;;2.30;99.90;;;;;;5045568;28;20042;-76
2022/12/21 06:01:16;;;;;;;30.38;12.63;;;2.40;99.90;;;;;;5028684;28;19959;-76
2022/12/21 06:03:41;;;;;;;;;;;2.40;99.90;;;;;;5028866;28;20030;-75
2022/12/21 06:06:13;;;;;;;20.40;10.15;;;2.40;99.90;;;;;;5030073;28;19967;-76
2022/12/21 06:08:39;;;;;;;22.35;10.80;;;2.40;99.90;;;;;;5028874;28;20032;-76
2022/12/21 06:11:15;;;;;;;;;;;2.40;99.90;;;;;;5029942;28;20092;-75
2022/12/21 06:13:41;;;;;;;22.80;10.40;;;2.30;99.90;;;;;;5028357;28;19966;-76
2022/12/21 06:16:12;;;;;;;26.00;11.73;;;2.30;99.90;;;;;;5028167;28;20100;-76
2022/12/21 06:18:39;;;;;;;28.10;12.00;;;2.30;99.90;;;;;;5045513;28;20034;-76
2022/12/21 06:21:06;;;;;;;22.80;12.48;;;2.30;99.90;;;;;;5028396;28;20064;-76
2022/12/21 06:23:31;;;;;;;28.92;14.32;;;2.40;99.90;;;;;;5044889;28;20026;-76
2022/12/21 06:25:58;;;;;;;;;;;2.30;99.90;;;;;;5030265;28;20501;-77
2022/12/21 06:28:25;;;;;;;25.80;14.52;;;2.20;99.90;;;;;;5028921;28;20003;-76
2022/12/21 06:30:51;;;;;;;27.48;13.07;;;2.20;99.90;;;;;;5028777;28;20040;-76
2022/12/21 06:33:21;;;;;;;25.27;12.52;;;2.20;99.90;;;;;;5045245;28;20043;-76
2022/12/21 06:35:52;;;;;;;23.73;12.48;;;2.20;99.90;;;;;;5029481;28;20029;-76
2022/12/21 06:38:18;;;;;;;29.67;12.82;;;2.30;99.90;;;;;;5028231;28;20025;-76
2022/12/21 06:40:43;;;;;;;;;;;2.30;99.90;;;;;;5030160;28;20136;-77
2022/12/21 06:43:10;;;;;;;24.25;12.00;;;2.50;99.90;;;;;;5029337;28;20503;-77
2022/12/21 06:45:36;;;;;;;27.48;13.15;;;2.50;99.90;;;;;;5027843;28;20529;-77
2022/12/21 06:48:01;;;;;;;;;;;2.30;99.90;;;;;;5028561;28;20025;-76
2022/12/21 06:50:27;;;;;;;29.48;13.68;;;2.20;99.90;;;;;;5028350;28;19914;-75
2022/12/21 06:52:53;;;;;;;;;;;2.10;99.90;;;;;;5029635;28;20049;-76
2022/12/21 06:55:18;;;;;;;29.42;14.73;;;2.10;99.90;;;;;;5027829;28;19979;-76
2022/12/21 06:57:44;;;;;;;;;;;2.20;99.90;;;;;;5028116;28;20446;-76
2022/12/21 07:00:10;;;;;;;29.08;14.68;;;2.30;99.90;;;;;;5027609;28;19932;-76
2022/12/21 07:02:36;;;;;;;29.48;13.73;;;2.20;99.90;;;;;;5027754;28;20127;-76
2022/12/21 07:05:02;;;;;;;31.88;14.88;;;2.10;99.90;;;;;;5044370;28;20028;-77
2022/12/21 07:07:28;;;;;;;;;;;2.10;99.90;;;;;;5028175;28;20033;-76
2022/12/21 07:09:53;;;;;;;28.30;14.90;;;2.10;99.90;;;;;;5027985;28;20010;-77
2022/12/21 07:12:19;;;;;;;;;;;2.00;99.90;;;;;;5027866;28;20091;-76
2022/12/21 07:14:44;;;;;;;26.73;12.77;;;2.00;99.90;;;;;;5029513;28;19916;-76
2022/12/21 07:17:10;;;;;;;;;;;2.00;99.90;;;;;;5028287;28;20026;-77
2022/12/21 07:19:36;;;;;;;27.10;14.43;;;2.20;99.90;;;;;;5029201;28;20440;-76
2022/12/21 07:22:01;;;;;;;;;;;2.20;99.90;;;;;;5029124;28;20539;-76
2022/12/21 07:24:27;;;;;;;49.15;24.20;;;2.10;99.90;;;;;;5027545;28;19913;-77
2022/12/21 07:26:54;;;;;;;;;;;2.20;99.90;;;;;;5044604;28;20037;-76
2022/12/21 07:29:20;;;;;;;35.00;15.40;;;2.10;99.90;;;;;;5027554;28;19909;-77
2022/12/21 07:31:45;;;;;;;;;;;2.30;99.90;;;;;;5028838;28;20033;-76
2022/12/21 07:34:11;;;;;;;26.40;12.05;;;2.40;99.90;;;;;;5029206;28;20324;-76
2022/12/21 07:36:36;;;;;;;;;;;2.40;99.90;;;;;;5027879;28;20479;-77
2022/12/21 07:39:02;;;;;;;29.45;14.20;;;2.40;99.90;;;;;;5027131;28;19909;-76
2022/12/21 07:41:27;;;;;;;;;;;2.40;99.90;;;;;;5029000;28;20032;-76
2022/12/21 07:43:53;;;;;;;31.13;15.15;;;2.40;99.90;;;;;;5028141;28;19959;-76
2022/12/21 07:46:19;;;;;;;;;;;2.40;99.90;;;;;;5044670;28;20025;-73
2022/12/21 07:48:45;;;;;;;28.30;12.57;;;2.50;99.90;;;;;;5030421;28;20532;-77
2022/12/21 07:51:11;;;;;;;;;;;2.40;99.90;;;;;;5027529;28;20030;-77
2022/12/21 07:53:36;;;;;;;26.13;13.70;;;2.50;99.90;;;;;;5028443;28;19921;-77
2022/12/21 07:56:04;;;;;;;;;;;2.40;99.90;;;;;;5034144;28;20413;-77
2022/12/21 07:58:29;;;;;;;;;;;2.30;99.90;;;;;;5035841;28;19912;-77
2022/12/21 08:01:01;;;;;;;30.52;15.23;;;2.40;99.90;;;;;;5030834;28;19909;-76
2022/12/21 08:03:27;;;;;;;54.63;25.70;;;2.40;99.90;;;;;;5032148;28;20413;-76
2022/12/21 08:05:53;;;;;;;;;;;2.40;99.90;;;;;;5048024;28;20030;-76
2022/12/21 08:08:19;;;;;;;36.65;15.88;;;2.40;99.90;;;;;;5031945;28;19909;-76
2022/12/21 08:10:45;;;;;;;;;;;2.40;99.90;;;;;;5032194;28;20021;-76
2022/12/21 08:13:11;;;;;;;32.40;16.67;;;2.50;99.90;;;;;;5029575;28;20007;-76
2022/12/21 08:15:36;;;;;;;;;;;2.60;99.90;;;;;;5030586;28;20502;-76
2022/12/21 08:18:02;;;;;;;32.67;15.45;;;2.60;99.90;;;;;;5030189;28;20255;-76
2022/12/21 08:20:29;;;;;;;;;;;2.50;99.90;;;;;;5030939;28;20036;-77
2022/12/21 08:22:54;;;;;;;31.93;15.40;;;2.60;99.90;;;;;;5030850;28;19958;-77
2022/12/21 08:25:20;;;;;;;;;;;2.60;99.90;;;;;;5032215;28;20271;-77
2022/12/21 08:27:46;;;;;;;26.40;12.48;;;2.60;99.90;;;;;;5030357;28;19913;-76
2022/12/21 08:30:12;;;;;;;;;;;2.60;99.90;;;;;;5030621;28;20014;-76
2022/12/21 08:32:37;;;;;;;29.25;13.30;;;2.80;99.90;;;;;;5030631;28;19917;-76
2022/12/21 08:35:03;;;;;;;27.33;14.13;;;2.70;99.90;;;;;;5031193;28;20577;-76
2022/12/21 08:37:29;;;;;;;;;;;2.70;99.90;;;;;;5030109;28;20033;-77
2022/12/21 08:39:54;;;;;;;23.30;11.55;;;2.70;99.90;;;;;;5031434;28;19916;-76
2022/12/21 08:42:20;;;;;;;;;;;2.70;99.90;;;;;;5030356;28;20037;-77
2022/12/21 08:44:48;;;;;;;23.52;12.15;;;2.80;99.90;;;;;;5030381;28;19917;-76
2022/12/21 08:47:13;;;;;;;26.10;11.43;;;2.80;99.90;;;;;;5030043;28;20021;-76
2022/12/21 08:49:39;;;;;;;;;;;2.90;99.90;;;;;;5031654;28;20029;-77
2022/12/21 08:52:05;;;;;;;24.00;11.65;;;2.80;99.90;;;;;;5031261;28;19917;-76
2022/12/21 08:54:31;;;;;;;20.55;9.82;;;2.90;99.90;;;;;;5031715;28;20370;-76
2022/12/21 08:56:56;;;;;;;;;;;2.90;99.90;;;;;;5031117;28;20026;-76
2022/12/21 08:59:22;;;;;;;21.60;9.88;;;2.80;99.90;;;;;;5030245;28;19904;-77
2022/12/21 09:01:47;;;;;;;;;;;2.80;99.90;;;;;;5031189;28;20025;-77
2022/12/21 09:04:13;;;;;;;30.42;11.68;;;2.70;99.90;;;;;;5029598;28;19905;-77
2022/12/21 09:06:39;;;;;;;;;;;2.70;99.90;;;;;;5030253;28;20033;-76
2022/12/21 09:09:04;;;;;;;16.60;8.75;;;2.80;99.90;;;;;;5030268;28;20000;-77
2022/12/21 09:11:30;;;;;;;;;;;2.90;99.90;;;;;;5046389;28;20057;-76
2022/12/21 09:13:56;;;;;;;19.88;9.73;;;2.90;99.90;;;;;;5031775;28;20386;-76
2022/12/21 09:16:23;;;;;;;;;;;3.00;99.40;;;;;;5046920;28;20033;-76
2022/12/21 09:18:49;;;;;;;16.37;8.60;;;3.00;99.90;;;;;;5030741;28;19954;-76
2022/12/21 09:21:17;;;;;;;18.00;8.07;;;3.00;99.90;;;;;;5029319;28;20057;-78
2022/12/21 09:23:43;;;;;;;20.85;9.73;;;3.00;99.80;;;;;;5029061;28;20053;-76
2022/12/21 09:26:10;;;;;;;20.80;9.50;;;3.00;99.90;;;;;;5031012;28;20101;-76
2022/12/21 09:28:36;;;;;;;25.42;11.38;;;2.90;99.60;;;;;;5030036;28;20049;-77
2022/12/21 09:31:13;;;;;;;21.17;9.00;;;2.90;99.90;;;;;;5029544;28;20087;-77
2022/12/21 09:33:40;;;;;;;18.70;9.13;;;3.00;99.70;;;;;;5028928;28;20069;-76
2022/12/21 09:36:07;;;;;;;27.50;15.88;;;3.00;99.60;;;;;;5030471;28;20026;-76
2022/12/21 09:38:33;;;;;;;17.90;8.70;;;3.10;99.90;;;;;;5029478;28;20501;-77
2022/12/21 09:41:06;;;;;;;18.33;9.52;;;3.10;99.60;;;;;;5030619;28;20498;-77
2022/12/21 09:43:40;;;;;;;19.33;9.32;;;3.10;99.90;;;;;;5031465;28;20071;-77
2022/12/21 09:46:14;;;;;;;17.70;8.95;;;3.20;98.80;;;;;;5031162;28;20091;-77
2022/12/21 09:48:56;;;;;;;17.95;7.57;;;3.20;98.20;;;;;;5029873;28;20025;-76
2022/12/21 09:51:25;;;;;;;21.63;10.68;;;3.40;96.20;;;;;;5029736;28;20073;-76
2022/12/21 09:53:59;;;;;;;20.05;8.57;;;3.30;97.10;;;;;;5031187;28;20064;-77
2022/12/21 09:56:27;;;;;;;21.60;10.07;;;3.20;97.00;;;;;;5029639;28;20075;-77
2022/12/21 09:58:55;;;;;;;23.73;8.95;;;3.30;96.80;;;;;;5029578;28;20047;-77
2022/12/21 10:01:27;;;;;;;17.35;8.38;;;3.40;95.90;;;;;;5028900;28;20573;-77
2022/12/21 10:04:17;;;;;;;15.15;7.65;;;3.40;96.30;;;;;;5028800;28;20041;-78
2022/12/21 10:07:11;;;;;;;18.10;8.35;;;3.50;96.50;;;;;;5030144;28;20034;-78
2022/12/21 10:10:10;;;;;;;16.30;7.57;;;3.50;96.60;;;;;;5012179;28;20045;-77
2022/12/21 10:12:53;;;;;;;17.80;8.38;;;3.50;96.50;;;;;;5029246;28;20041;-77
2022/12/21 10:15:26;;;;;;;17.70;8.43;;;3.50;96.90;;;;;;5030641;28;20057;-77
2022/12/21 10:18:10;;;;;;;19.20;9.25;;;3.50;98.10;;;;;;5027888;28;20067;-77
2022/12/21 10:20:46;;;;;;;16.27;8.20;;;3.50;97.80;;;;;;5028138;28;20026;-77
2022/12/21 10:23:25;;;;;;;25.50;8.60;;;3.60;96.40;;;;;;5028012;28;20026;-77
2022/12/21 10:26:00;;;;;;;22.33;9.85;;;3.70;96.50;;;;;;5029530;28;20104;-78
2022/12/21 10:28:49;;;;;;;25.60;12.93;;;3.60;98.10;;;;;;5028106;28;20033;-78
2022/12/21 10:31:33;;;;;;;19.45;9.63;;;3.60;97.90;;;;;;5027928;28;20029;-77
2022/12/21 10:34:00;;;;;;;17.35;8.45;;;3.70;98.60;;;;;;5028066;28;20060;-77
2022/12/21 10:36:36;;;;;;;19.77;11.07;;;3.80;95.60;;;;;;5027685;28;20121;-77
2022/12/21 10:39:08;;;;;;;;;;;3.80;96.50;;;;;;5029542;28;20025;-77
2022/12/21 10:41:39;;;;;;;48.35;22.25;;;3.60;96.90;;;;;;5027705;28;19912;-77
2022/12/21 10:44:05;;;;;;;26.42;13.43;;;3.60;96.60;;;;;;5027537;28;20091;-77
2022/12/21 10:46:32;;;;;;;;;;;3.60;96.40;;;;;;5028615;28;20029;-78
2022/12/21 10:49:04;;;;;;;24.10;9.75;;;3.70;95.40;;;;;;5027695;28;19913;-77
2022/12/21 10:51:35;;;;;;;30.30;10.68;;;3.80;95.30;;;;;;5044121;28;20136;-77
2022/12/21 10:54:04;;;;;;;21.20;10.77;;;3.60;95.80;;;;;;5029165;28;20032;-78
2022/12/21 10:56:36;;;;;;;19.90;9.93;;;3.70;96.30;;;;;;5027834;28;20028;-77
2022/12/21 10:59:30;;;;;;;59.55;24.00;;;3.60;96.50;;;;;;5027723;28;20083;-76
2022/12/21 11:01:56;;;;;;;25.30;12.18;;;3.70;96.80;;;;;;5029123;28;20550;-77
2022/12/21 11:04:21;;;;;;;;;;;3.60;95.00;;;;;;5027711;28;20036;-77
2022/12/21 11:07:03;;;;;;;28.55;13.20;;;3.60;95.20;;;;;;5027703;28;19915;-77
2022/12/21 11:09:38;;;;;;;17.15;9.88;;;3.60;96.60;;;;;;5027426;28;20036;-76
2022/12/21 11:12:22;;;;;;;17.23;9.25;;;3.50;96.50;;;;;;5027650;28;20049;-77
2022/12/21 11:14:52;;;;;;;27.17;14.63;;;3.60;96.90;;;;;;5028909;28;20187;-77
2022/12/21 11:17:25;;;;;;;26.20;13.25;;;3.60;96.20;;;;;;5027782;28;20030;-77
2022/12/21 11:20:13;;;;;;;32.08;18.33;;;3.50;96.80;;;;;;5027788;28;20124;-77
2022/12/21 11:22:43;;;;;;;29.42;14.82;;;3.50;96.70;;;;;;5028945;28;20107;-78
2022/12/21 11:25:16;;;;;;;29.10;13.73;;;3.50;96.30;;;;;;5027212;28;20036;-78
2022/12/21 11:27:45;;;;;;;40.38;19.23;;;3.50;96.10;;;;;;5029022;28;20143;-77
2022/12/21 11:30:19;;;;;;;39.35;20.75;;;3.50;96.20;;;;;;5047825;28;20026;-77
2022/12/21 11:32:48;;;;;;;26.00;11.20;;;3.50;96.30;;;;;;5032059;28;20045;-77
2022/12/21 11:35:23;;;;;;;52.28;24.17;;;3.40;96.60;;;;;;5031217;28;20026;-78
2022/12/21 11:38:01;;;;;;;32.00;15.90;;;3.40;96.00;;;;;;5032658;28;20533;-78
2022/12/21 11:40:28;;;;;;;22.70;9.35;;;3.40;95.70;;;;;;5031425;28;20094;-78
2022/12/21 11:43:00;;;;;;;25.38;12.77;;;3.50;96.60;;;;;;5031197;28;20029;-77
2022/12/21 11:45:49;;;;;;;15.35;8.25;;;3.60;97.00;;;;;;5031314;28;20029;-77
2022/12/21 11:48:35;;;;;;;18.15;9.13;;;3.60;95.90;;;;;;5048138;28;20056;-77
2022/12/21 11:51:19;;;;;;;20.85;9.55;;;3.60;96.10;;;;;;5031111;28;20116;-77
2022/12/21 11:53:53;;;;;;;18.67;8.00;;;3.70;96.70;;;;;;5031240;28;20151;-77
2022/12/21 11:56:28;;;;;;;19.50;9.07;;;3.70;93.90;;;;;;5031394;28;20037;-78
2022/12/21 11:59:03;;;;;;;66.05;25.90;;;3.60;95.60;;;;;;5031172;28;20025;-77
2022/12/21 12:02:02;;;;;;;51.85;21.65;;;3.60;95.90;;;;;;5030903;28;20029;-77
2022/12/21 12:04:40;;;;;;;32.85;12.77;;;3.60;95.90;;;;;;5030853;28;20076;-77
2022/12/21 12:07:42;;;;;;;109.32;48.60;;;3.60;95.30;;;;;;5030744;28;20048;-77
2022/12/21 12:10:27;;;;;;;36.65;17.58;;;3.60;96.20;;;;;;5032855;28;20030;-77
2022/12/21 12:13:16;;;;;;;76.40;39.15;;;3.60;96.90;;;;;;5032775;28;20182;-78
2022/12/21 12:16:16;;;;;;;31.55;16.30;;;3.50;96.80;;;;;;5031034;28;20541;-78
2022/12/21 12:19:06;;;;;;;23.27;11.52;;;3.60;96.70;;;;;;5032501;28;20075;-77
2022/12/21 12:22:12;;;;;;;28.00;11.63;;;3.60;97.30;;;;;;5031504;28;20034;-77
2022/12/21 12:24:37;;;;;;;26.48;11.50;;;3.50;98.00;;;;;;5031001;28;20502;-77
2022/12/21 12:27:06;;;;;;;;;;;3.60;98.10;;;;;;5031208;28;20040;-77
2022/12/21 12:29:50;;;;;;;24.42;12.07;;;3.60;98.50;;;;;;5030903;28;20289;-78
2022/12/21 12:32:19;;;;;;;26.20;11.48;;;3.60;98.20;;;;;;5031250;28;20033;-77
2022/12/21 12:35:17;;;;;;;18.70;9.88;;;3.70;97.60;;;;;;5033374;28;20100;-78
2022/12/21 12:38:12;;;;;;;21.65;10.43;;;3.80;96.40;;;;;;5030865;28;20022;-77
2022/12/21 12:40:47;;;;;;;30.73;12.63;;;3.70;97.70;;;;;;5030419;28;20438;-77
2022/12/21 12:44:01;;;;;;;24.45;11.57;;;3.60;97.50;;;;;;5030013;28;20124;-77
2022/12/21 12:46:50;;;;;;;33.53;14.43;;;3.60;98.00;;;;;;5021197;28;20029;-78
2022/12/21 12:49:56;;;;;;;19.35;9.77;;;3.60;98.60;;;;;;5031523;28;20040;-77
2022/12/21 12:52:45;;;;;;;19.30;8.75;;;3.50;98.70;;;;;;5029929;28;20055;-77
2022/12/21 12:55:24;;;;;;;18.40;9.20;;;3.50;98.40;;;;;;5029984;28;20410;-77
2022/12/21 12:57:49;;;;;;;30.27;16.92;;;3.50;98.70;;;;;;5030018;28;20021;-77
2022/12/21 13:00:16;;;;;;;;;;;3.50;98.70;;;;;;5030418;28;20030;-78
2022/12/21 13:03:02;;;;;;;21.30;11.98;;;3.50;98.90;;;;;;5029787;28;19931;-76
2022/12/21 13:05:36;;;;;;;20.52;10.73;;;3.40;98.60;;;;;;5031080;28;20026;-77
2022/12/21 13:08:30;;;;;;;18.48;8.88;;;3.40;98.30;;;;;;5029985;28;20033;-78
2022/12/21 13:11:26;;;;;;;22.50;10.85;;;3.40;98.20;;;;;;5029879;28;20018;-77
2022/12/21 13:14:16;;;;;;;21.27;9.95;;;3.40;98.20;;;;;;5031690;28;20040;-77
2022/12/21 13:17:05;;;;;;;24.63;10.23;;;3.40;98.60;;;;;;5029652;28;20033;-77
2022/12/21 13:19:32;;;;;;;21.83;12.13;;;3.40;98.30;;;;;;5029697;28;20030;-77
2022/12/21 13:22:02;;;;;;;27.23;12.23;;;3.40;98.90;;;;;;5030035;28;20151;-77
2022/12/21 13:24:45;;;;;;;22.63;10.93;;;3.40;98.20;;;;;;5029859;28;20542;-77
2022/12/21 13:27:26;;;;;;;20.00;10.27;;;3.50;97.90;;;;;;5029969;28;20028;-77
2022/12/21 13:30:22;;;;;;;21.10;11.10;;;3.50;98.60;;;;;;5030150;28;20091;-77
2022/12/21 13:32:55;;;;;;;20.25;10.88;;;3.40;99.10;;;;;;5029836;28;20514;-78
2022/12/21 13:35:35;;;;;;;20.80;10.13;;;3.40;99.20;;;;;;5029623;28;20026;-77
2022/12/21 13:38:04;;;;;;;27.27;10.20;;;3.40;98.80;;;;;;5029589;28;20117;-76